sensor_id;sensor_type;location;lat;lon;timestamp;P1;durP1;ratioP1;P2;durP2;ratioP2
16870;SDS011;8552;48.120;-1.456;2022-07-23T00:01:32;3.72;;;2.22;;
16870;SDS011;8552;48.120;-1.456;2022-07-23T00:03:58;3.45;;;2.17;;
16870;SDS011;8552;48.120;-1.456;2022-07-23T00:06:24;5.10;;;2.28;;
16870;SDS011;8552;48.120;-1.456;2022-07-23T00:08:50;5.22;;;2.75;;
16870;SDS011;8552;48.120;-1.456;2022-07-23T00:11:17;4.20;;;2.25;;
16870;SDS011;8552;48.120;-1.456;2022-07-23T00:13:42;4.70;;;2.10;;
16870;SDS011;8552;48.120;-1.456;2022-07-23T00:16:08;4.05;;;2.10;;
16870;SDS011;8552;48.120;-1.456;2022-07-23T00:18:34;2.90;;;2.30;;
16870;SDS011;8552;48.120;-1.456;2022-07-23T00:21:00;4.43;;;2.22;;
16870;SDS011;8552;48.120;-1.456;2022-07-23T00:23:26;3.20;;;2.38;;
16870;SDS011;8552;48.120;-1.456;2022-07-23T00:25:53;3.97;;;2.38;;
16870;SDS011;8552;48.120;-1.456;2022-07-23T00:28:20;6.07;;;2.47;;
16870;SDS011;8552;48.120;-1.456;2022-07-23T00:30:45;3.13;;;2.05;;
16870;SDS011;8552;48.120;-1.456;2022-07-23T00:33:11;3.47;;;2.55;;
16870;SDS011;8552;48.120;-1.456;2022-07-23T00:35:38;4.50;;;2.40;;
16870;SDS011;8552;48.120;-1.456;2022-07-23T00:38:06;3.90;;;2.28;;
16870;SDS011;8552;48.120;-1.456;2022-07-23T00:40:32;4.38;;;2.72;;
16870;SDS011;8552;48.120;-1.456;2022-07-23T00:42:59;5.75;;;3.28;;
16870;SDS011;8552;48.120;-1.456;2022-07-23T00:45:25;4.32;;;2.35;;
16870;SDS011;8552;48.120;-1.456;2022-07-23T00:47:51;2.67;;;2.40;;
16870;SDS011;8552;48.120;-1.456;2022-07-23T00:50:17;2.60;;;2.38;;
16870;SDS011;8552;48.120;-1.456;2022-07-23T00:52:43;3.67;;;2.53;;
16870;SDS011;8552;48.120;-1.456;2022-07-23T00:55:09;3.28;;;2.63;;
16870;SDS011;8552;48.120;-1.456;2022-07-23T00:57:38;4.63;;;3.17;;
16870;SDS011;8552;48.120;-1.456;2022-07-23T01:00:05;3.47;;;2.35;;
16870;SDS011;8552;48.120;-1.456;2022-07-23T01:02:33;3.75;;;2.60;;
16870;SDS011;8552;48.120;-1.456;2022-07-23T01:04:58;3.10;;;2.25;;
16870;SDS011;8552;48.120;-1.456;2022-07-23T01:07:24;3.60;;;2.30;;
16870;SDS011;8552;48.120;-1.456;2022-07-23T01:09:50;2.65;;;2.38;;
16870;SDS011;8552;48.120;-1.456;2022-07-23T01:12:17;3.05;;;2.20;;
16870;SDS011;8552;48.120;-1.456;2022-07-23T01:14:43;5.18;;;2.30;;
16870;SDS011;8552;48.120;-1.456;2022-07-23T01:17:09;3.30;;;2.05;;
16870;SDS011;8552;48.120;-1.456;2022-07-23T01:19:34;3.50;;;1.95;;
16870;SDS011;8552;48.120;-1.456;2022-07-23T01:22:01;1.83;;;1.60;;
16870;SDS011;8552;48.120;-1.456;2022-07-23T01:24:28;4.63;;;2.05;;
16870;SDS011;8552;48.120;-1.456;2022-07-23T01:26:54;4.30;;;2.53;;
16870;SDS011;8552;48.120;-1.456;2022-07-23T01:29:20;2.88;;;2.38;;
16870;SDS011;8552;48.120;-1.456;2022-07-23T01:31:46;3.42;;;2.38;;
16870;SDS011;8552;48.120;-1.456;2022-07-23T01:34:12;3.08;;;2.25;;
16870;SDS011;8552;48.120;-1.456;2022-07-23T01:36:38;2.22;;;2.10;;
16870;SDS011;8552;48.120;-1.456;2022-07-23T01:39:05;3.05;;;2.40;;
16870;SDS011;8552;48.120;-1.456;2022-07-23T01:41:31;3.47;;;2.40;;
16870;SDS011;8552;48.120;-1.456;2022-07-23T01:43:57;5.82;;;3.13;;
16870;SDS011;8552;48.120;-1.456;2022-07-23T01:46:23;4.70;;;2.80;;
16870;SDS011;8552;48.120;-1.456;2022-07-23T01:48:49;3.75;;;3.03;;
16870;SDS011;8552;48.120;-1.456;2022-07-23T01:51:15;4.32;;;2.50;;
16870;SDS011;8552;48.120;-1.456;2022-07-23T01:53:41;3.10;;;2.55;;
16870;SDS011;8552;48.120;-1.456;2022-07-23T01:56:06;2.38;;;2.17;;
16870;SDS011;8552;48.120;-1.456;2022-07-23T01:58:32;3.53;;;3.00;;
16870;SDS011;8552;48.120;-1.456;2022-07-23T02:00:58;4.53;;;2.90;;
16870;SDS011;8552;48.120;-1.456;2022-07-23T02:03:24;6.50;;;3.47;;
16870;SDS011;8552;48.120;-1.456;2022-07-23T02:05:50;3.88;;;2.80;;
16870;SDS011;8552;48.120;-1.456;2022-07-23T02:08:16;3.45;;;2.78;;
16870;SDS011;8552;48.120;-1.456;2022-07-23T02:10:42;3.20;;;2.90;;
16870;SDS011;8552;48.120;-1.456;2022-07-23T02:13:08;4.20;;;2.60;;
16870;SDS011;8552;48.120;-1.456;2022-07-23T02:15:34;4.82;;;2.72;;
16870;SDS011;8552;48.120;-1.456;2022-07-23T02:18:00;4.40;;;2.70;;
16870;SDS011;8552;48.120;-1.456;2022-07-23T02:20:26;2.83;;;2.63;;
16870;SDS011;8552;48.120;-1.456;2022-07-23T02:22:51;4.30;;;2.78;;
16870;SDS011;8552;48.120;-1.456;2022-07-23T02:25:17;4.20;;;2.72;;
16870;SDS011;8552;48.120;-1.456;2022-07-23T02:27:43;3.25;;;2.88;;
16870;SDS011;8552;48.120;-1.456;2022-07-23T02:30:09;3.97;;;2.60;;
16870;SDS011;8552;48.120;-1.456;2022-07-23T02:32:36;4.10;;;3.28;;
16870;SDS011;8552;48.120;-1.456;2022-07-23T02:35:02;4.57;;;2.97;;
16870;SDS011;8552;48.120;-1.456;2022-07-23T02:37:28;4.50;;;3.40;;
16870;SDS011;8552;48.120;-1.456;2022-07-23T02:39:54;4.03;;;3.60;;
16870;SDS011;8552;48.120;-1.456;2022-07-23T02:42:20;3.75;;;3.45;;
16870;SDS011;8552;48.120;-1.456;2022-07-23T02:44:46;6.07;;;4.18;;
16870;SDS011;8552;48.120;-1.456;2022-07-23T02:47:12;4.97;;;4.05;;
16870;SDS011;8552;48.120;-1.456;2022-07-23T02:49:39;4.25;;;3.67;;
16870;SDS011;8552;48.120;-1.456;2022-07-23T02:52:08;4.57;;;4.18;;
16870;SDS011;8552;48.120;-1.456;2022-07-23T02:54:35;8.10;;;4.60;;
16870;SDS011;8552;48.120;-1.456;2022-07-23T02:57:01;7.20;;;5.55;;
16870;SDS011;8552;48.120;-1.456;2022-07-23T02:59:27;5.68;;;4.30;;
16870;SDS011;8552;48.120;-1.456;2022-07-23T03:01:53;8.32;;;4.88;;
16870;SDS011;8552;48.120;-1.456;2022-07-23T03:04:19;7.90;;;5.25;;
16870;SDS011;8552;48.120;-1.456;2022-07-23T03:06:44;10.57;;;4.88;;
16870;SDS011;8552;48.120;-1.456;2022-07-23T03:09:10;7.82;;;4.88;;
16870;SDS011;8552;48.120;-1.456;2022-07-23T03:11:36;8.57;;;4.50;;
16870;SDS011;8552;48.120;-1.456;2022-07-23T03:14:01;10.25;;;4.47;;
16870;SDS011;8552;48.120;-1.456;2022-07-23T03:16:27;5.35;;;4.10;;
16870;SDS011;8552;48.120;-1.456;2022-07-23T03:18:53;9.15;;;4.53;;
16870;SDS011;8552;48.120;-1.456;2022-07-23T03:21:19;8.57;;;4.85;;
16870;SDS011;8552;48.120;-1.456;2022-07-23T03:23:44;5.07;;;4.47;;
16870;SDS011;8552;48.120;-1.456;2022-07-23T03:26:10;9.23;;;4.43;;
16870;SDS011;8552;48.120;-1.456;2022-07-23T03:28:36;7.50;;;4.35;;
16870;SDS011;8552;48.120;-1.456;2022-07-23T03:31:01;9.00;;;4.88;;
16870;SDS011;8552;48.120;-1.456;2022-07-23T03:33:27;7.38;;;4.72;;
16870;SDS011;8552;48.120;-1.456;2022-07-23T03:35:53;9.32;;;4.97;;
16870;SDS011;8552;48.120;-1.456;2022-07-23T03:38:18;7.80;;;4.70;;
16870;SDS011;8552;48.120;-1.456;2022-07-23T03:40:44;6.72;;;4.65;;
16870;SDS011;8552;48.120;-1.456;2022-07-23T03:43:10;7.55;;;4.55;;
16870;SDS011;8552;48.120;-1.456;2022-07-23T03:45:35;7.13;;;5.40;;
16870;SDS011;8552;48.120;-1.456;2022-07-23T03:48:01;5.63;;;4.22;;
16870;SDS011;8552;48.120;-1.456;2022-07-23T03:50:27;8.07;;;4.07;;
16870;SDS011;8552;48.120;-1.456;2022-07-23T03:52:53;7.03;;;4.75;;
16870;SDS011;8552;48.120;-1.456;2022-07-23T03:55:19;7.18;;;4.50;;
16870;SDS011;8552;48.120;-1.456;2022-07-23T03:57:45;5.47;;;4.50;;
16870;SDS011;8552;48.120;-1.456;2022-07-23T04:00:10;7.68;;;4.22;;
16870;SDS011;8552;48.120;-1.456;2022-07-23T04:02:38;4.65;;;3.85;;
16870;SDS011;8552;48.120;-1.456;2022-07-23T04:05:04;5.93;;;3.67;;
16870;SDS011;8552;48.120;-1.456;2022-07-23T04:07:30;5.15;;;4.38;;
16870;SDS011;8552;48.120;-1.456;2022-07-23T04:09:56;6.65;;;3.97;;
16870;SDS011;8552;48.120;-1.456;2022-07-23T04:12:22;5.32;;;3.88;;
16870;SDS011;8552;48.120;-1.456;2022-07-23T04:14:48;4.38;;;3.47;;
16870;SDS011;8552;48.120;-1.456;2022-07-23T04:17:14;5.60;;;3.90;;
16870;SDS011;8552;48.120;-1.456;2022-07-23T04:19:39;4.25;;;3.72;;
16870;SDS011;8552;48.120;-1.456;2022-07-23T04:22:09;4.57;;;3.80;;
16870;SDS011;8552;48.120;-1.456;2022-07-23T04:24:38;5.55;;;3.70;;
16870;SDS011;8552;48.120;-1.456;2022-07-23T04:27:04;4.03;;;3.53;;
16870;SDS011;8552;48.120;-1.456;2022-07-23T04:29:29;5.57;;;3.92;;
16870;SDS011;8552;48.120;-1.456;2022-07-23T04:31:55;4.80;;;4.00;;
16870;SDS011;8552;48.120;-1.456;2022-07-23T04:34:21;8.10;;;3.83;;
16870;SDS011;8552;48.120;-1.456;2022-07-23T04:36:47;4.07;;;3.58;;
16870;SDS011;8552;48.120;-1.456;2022-07-23T04:39:12;3.80;;;3.38;;
16870;SDS011;8552;48.120;-1.456;2022-07-23T04:41:38;4.55;;;3.65;;
16870;SDS011;8552;48.120;-1.456;2022-07-23T04:44:04;4.10;;;3.72;;
16870;SDS011;8552;48.120;-1.456;2022-07-23T04:46:29;6.07;;;3.80;;
16870;SDS011;8552;48.120;-1.456;2022-07-23T04:48:55;7.07;;;3.80;;
16870;SDS011;8552;48.120;-1.456;2022-07-23T04:51:21;4.78;;;3.97;;
16870;SDS011;8552;48.120;-1.456;2022-07-23T04:53:47;5.90;;;3.88;;
16870;SDS011;8552;48.120;-1.456;2022-07-23T04:56:12;6.50;;;3.92;;
16870;SDS011;8552;48.120;-1.456;2022-07-23T04:58:38;5.50;;;3.60;;
16870;SDS011;8552;48.120;-1.456;2022-07-23T05:01:04;4.05;;;3.65;;
16870;SDS011;8552;48.120;-1.456;2022-07-23T05:03:29;7.97;;;4.40;;
16870;SDS011;8552;48.120;-1.456;2022-07-23T05:05:55;4.32;;;3.92;;
16870;SDS011;8552;48.120;-1.456;2022-07-23T05:08:21;5.25;;;3.45;;
16870;SDS011;8552;48.120;-1.456;2022-07-23T05:10:47;5.80;;;3.83;;
16870;SDS011;8552;48.120;-1.456;2022-07-23T05:13:16;8.00;;;5.00;;
16870;SDS011;8552;48.120;-1.456;2022-07-23T05:15:42;5.47;;;3.85;;
16870;SDS011;8552;48.120;-1.456;2022-07-23T05:18:08;4.18;;;3.75;;
16870;SDS011;8552;48.120;-1.456;2022-07-23T05:20:34;7.07;;;4.00;;
16870;SDS011;8552;48.120;-1.456;2022-07-23T05:22:59;4.70;;;4.20;;
16870;SDS011;8552;48.120;-1.456;2022-07-23T05:25:25;5.57;;;3.60;;
16870;SDS011;8552;48.120;-1.456;2022-07-23T05:27:51;6.35;;;4.00;;
16870;SDS011;8552;48.120;-1.456;2022-07-23T05:30:17;5.28;;;4.35;;
16870;SDS011;8552;48.120;-1.456;2022-07-23T05:32:42;6.10;;;3.60;;
16870;SDS011;8552;48.120;-1.456;2022-07-23T05:35:08;4.25;;;3.55;;
16870;SDS011;8552;48.120;-1.456;2022-07-23T05:37:34;5.72;;;4.47;;
16870;SDS011;8552;48.120;-1.456;2022-07-23T05:40:03;4.60;;;4.20;;
16870;SDS011;8552;48.120;-1.456;2022-07-23T05:42:34;4.72;;;4.05;;
16870;SDS011;8552;48.120;-1.456;2022-07-23T05:45:01;4.30;;;3.90;;
16870;SDS011;8552;48.120;-1.456;2022-07-23T05:47:27;6.05;;;4.53;;
16870;SDS011;8552;48.120;-1.456;2022-07-23T05:49:53;7.60;;;4.97;;
16870;SDS011;8552;48.120;-1.456;2022-07-23T05:52:19;8.52;;;5.57;;
16870;SDS011;8552;48.120;-1.456;2022-07-23T05:54:45;7.55;;;6.22;;
16870;SDS011;8552;48.120;-1.456;2022-07-23T05:57:10;6.43;;;5.55;;
16870;SDS011;8552;48.120;-1.456;2022-07-23T05:59:36;7.78;;;5.32;;
16870;SDS011;8552;48.120;-1.456;2022-07-23T06:02:02;9.40;;;5.78;;
16870;SDS011;8552;48.120;-1.456;2022-07-23T06:04:27;9.43;;;5.93;;
16870;SDS011;8552;48.120;-1.456;2022-07-23T06:06:54;9.43;;;6.68;;
16870;SDS011;8552;48.120;-1.456;2022-07-23T06:09:19;11.30;;;6.32;;
16870;SDS011;8552;48.120;-1.456;2022-07-23T06:11:45;11.38;;;6.85;;
16870;SDS011;8552;48.120;-1.456;2022-07-23T06:14:11;9.45;;;7.30;;
16870;SDS011;8552;48.120;-1.456;2022-07-23T06:16:36;11.45;;;8.35;;
16870;SDS011;8552;48.120;-1.456;2022-07-23T06:19:02;10.70;;;7.30;;
16870;SDS011;8552;48.120;-1.456;2022-07-23T06:21:28;8.40;;;6.60;;
16870;SDS011;8552;48.120;-1.456;2022-07-23T06:23:53;8.75;;;7.07;;
16870;SDS011;8552;48.120;-1.456;2022-07-23T06:26:19;13.20;;;7.55;;
16870;SDS011;8552;48.120;-1.456;2022-07-23T06:28:45;8.98;;;7.43;;
16870;SDS011;8552;48.120;-1.456;2022-07-23T06:31:10;12.02;;;7.70;;
16870;SDS011;8552;48.120;-1.456;2022-07-23T06:33:36;14.98;;;8.23;;
16870;SDS011;8552;48.120;-1.456;2022-07-23T06:36:02;9.55;;;6.75;;
16870;SDS011;8552;48.120;-1.456;2022-07-23T06:38:27;12.73;;;7.95;;
16870;SDS011;8552;48.120;-1.456;2022-07-23T06:40:53;10.55;;;7.35;;
16870;SDS011;8552;48.120;-1.456;2022-07-23T06:43:19;11.32;;;6.97;;
16870;SDS011;8552;48.120;-1.456;2022-07-23T06:45:44;10.35;;;7.32;;
16870;SDS011;8552;48.120;-1.456;2022-07-23T06:48:10;11.88;;;7.30;;
16870;SDS011;8552;48.120;-1.456;2022-07-23T06:50:35;15.65;;;8.80;;
16870;SDS011;8552;48.120;-1.456;2022-07-23T06:53:01;13.60;;;6.97;;
16870;SDS011;8552;48.120;-1.456;2022-07-23T06:55:27;9.93;;;7.13;;
16870;SDS011;8552;48.120;-1.456;2022-07-23T06:57:53;12.68;;;6.85;;
16870;SDS011;8552;48.120;-1.456;2022-07-23T07:00:18;9.98;;;6.88;;
16870;SDS011;8552;48.120;-1.456;2022-07-23T07:02:44;13.98;;;6.85;;
16870;SDS011;8552;48.120;-1.456;2022-07-23T07:05:10;10.82;;;6.60;;
16870;SDS011;8552;48.120;-1.456;2022-07-23T07:07:35;13.68;;;7.53;;
16870;SDS011;8552;48.120;-1.456;2022-07-23T07:10:02;11.13;;;7.30;;
16870;SDS011;8552;48.120;-1.456;2022-07-23T07:12:28;8.45;;;6.60;;
16870;SDS011;8552;48.120;-1.456;2022-07-23T07:14:54;10.18;;;7.00;;
16870;SDS011;8552;48.120;-1.456;2022-07-23T07:17:20;8.80;;;5.72;;
16870;SDS011;8552;48.120;-1.456;2022-07-23T07:19:46;9.00;;;6.35;;
16870;SDS011;8552;48.120;-1.456;2022-07-23T07:22:11;7.32;;;5.60;;
16870;SDS011;8552;48.120;-1.456;2022-07-23T07:24:37;8.60;;;5.35;;
16870;SDS011;8552;48.120;-1.456;2022-07-23T07:27:03;9.35;;;6.32;;
16870;SDS011;8552;48.120;-1.456;2022-07-23T07:29:28;7.85;;;6.00;;
16870;SDS011;8552;48.120;-1.456;2022-07-23T07:31:54;7.90;;;4.70;;
16870;SDS011;8552;48.120;-1.456;2022-07-23T07:34:20;8.40;;;4.70;;
16870;SDS011;8552;48.120;-1.456;2022-07-23T07:36:45;6.03;;;4.05;;
16870;SDS011;8552;48.120;-1.456;2022-07-23T07:39:11;6.88;;;4.55;;
16870;SDS011;8552;48.120;-1.456;2022-07-23T07:41:37;7.00;;;4.35;;
16870;SDS011;8552;48.120;-1.456;2022-07-23T07:44:03;7.78;;;4.20;;
16870;SDS011;8552;48.120;-1.456;2022-07-23T07:46:29;7.35;;;4.38;;
16870;SDS011;8552;48.120;-1.456;2022-07-23T07:48:55;9.65;;;4.22;;
16870;SDS011;8552;48.120;-1.456;2022-07-23T07:51:21;10.95;;;4.25;;
16870;SDS011;8552;48.120;-1.456;2022-07-23T07:53:47;7.50;;;4.78;;
16870;SDS011;8552;48.120;-1.456;2022-07-23T07:56:12;15.30;;;4.38;;
16870;SDS011;8552;48.120;-1.456;2022-07-23T07:58:38;7.80;;;4.30;;
16870;SDS011;8552;48.120;-1.456;2022-07-23T08:01:04;6.85;;;4.80;;
16870;SDS011;8552;48.120;-1.456;2022-07-23T08:03:29;12.65;;;5.18;;
16870;SDS011;8552;48.120;-1.456;2022-07-23T08:05:55;7.07;;;5.45;;
16870;SDS011;8552;48.120;-1.456;2022-07-23T08:08:21;7.40;;;4.35;;
16870;SDS011;8552;48.120;-1.456;2022-07-23T08:10:47;6.53;;;4.97;;
16870;SDS011;8552;48.120;-1.456;2022-07-23T08:13:13;8.27;;;4.07;;
16870;SDS011;8552;48.120;-1.456;2022-07-23T08:15:40;10.07;;;4.68;;
16870;SDS011;8552;48.120;-1.456;2022-07-23T08:18:06;7.95;;;4.68;;
16870;SDS011;8552;48.120;-1.456;2022-07-23T08:20:31;7.15;;;4.65;;
16870;SDS011;8552;48.120;-1.456;2022-07-23T08:22:58;8.23;;;4.07;;
16870;SDS011;8552;48.120;-1.456;2022-07-23T08:25:29;9.70;;;4.15;;
16870;SDS011;8552;48.120;-1.456;2022-07-23T08:27:58;7.63;;;4.03;;
16870;SDS011;8552;48.120;-1.456;2022-07-23T08:30:24;7.80;;;4.03;;
16870;SDS011;8552;48.120;-1.456;2022-07-23T08:32:51;9.98;;;4.80;;
16870;SDS011;8552;48.120;-1.456;2022-07-23T08:35:33;9.40;;;4.30;;
16870;SDS011;8552;48.120;-1.456;2022-07-23T08:38:03;7.88;;;5.13;;
16870;SDS011;8552;48.120;-1.456;2022-07-23T08:40:31;7.88;;;4.45;;
16870;SDS011;8552;48.120;-1.456;2022-07-23T08:42:59;8.85;;;5.18;;
16870;SDS011;8552;48.120;-1.456;2022-07-23T08:45:29;6.25;;;4.68;;
16870;SDS011;8552;48.120;-1.456;2022-07-23T08:47:55;5.45;;;4.30;;
16870;SDS011;8552;48.120;-1.456;2022-07-23T08:50:25;8.27;;;4.70;;
16870;SDS011;8552;48.120;-1.456;2022-07-23T08:52:52;7.00;;;4.00;;
16870;SDS011;8552;48.120;-1.456;2022-07-23T08:55:18;8.57;;;5.00;;
16870;SDS011;8552;48.120;-1.456;2022-07-23T08:57:49;6.93;;;5.20;;
16870;SDS011;8552;48.120;-1.456;2022-07-23T09:00:17;9.10;;;4.60;;
16870;SDS011;8552;48.120;-1.456;2022-07-23T09:02:44;7.38;;;4.28;;
16870;SDS011;8552;48.120;-1.456;2022-07-23T09:05:14;8.75;;;5.20;;
16870;SDS011;8552;48.120;-1.456;2022-07-23T09:10:47;6.07;;;3.80;;
16870;SDS011;8552;48.120;-1.456;2022-07-23T09:15:52;6.07;;;3.80;;
16870;SDS011;8552;48.120;-1.456;2022-07-23T09:18:19;6.43;;;3.72;;
16870;SDS011;8552;48.120;-1.456;2022-07-23T09:20:56;5.45;;;3.35;;
16870;SDS011;8552;48.120;-1.456;2022-07-23T09:23:38;7.88;;;3.45;;
16870;SDS011;8552;48.120;-1.456;2022-07-23T09:28:51;7.13;;;4.10;;
16870;SDS011;8552;48.120;-1.456;2022-07-23T09:31:18;4.50;;;3.30;;
16870;SDS011;8552;48.120;-1.456;2022-07-23T09:33:44;6.20;;;3.55;;
16870;SDS011;8552;48.120;-1.456;2022-07-23T09:36:09;5.05;;;3.20;;
16870;SDS011;8552;48.120;-1.456;2022-07-23T09:38:36;5.97;;;5.32;;
16870;SDS011;8552;48.120;-1.456;2022-07-23T09:41:14;7.35;;;3.63;;
16870;SDS011;8552;48.120;-1.456;2022-07-23T09:43:39;5.50;;;2.80;;
16870;SDS011;8552;48.120;-1.456;2022-07-23T09:46:18;5.65;;;2.45;;
16870;SDS011;8552;48.120;-1.456;2022-07-23T09:48:49;6.82;;;3.10;;
16870;SDS011;8552;48.120;-1.456;2022-07-23T09:51:19;3.65;;;2.42;;
16870;SDS011;8552;48.120;-1.456;2022-07-23T09:53:57;6.15;;;2.67;;
16870;SDS011;8552;48.120;-1.456;2022-07-23T09:56:23;3.45;;;3.10;;
16870;SDS011;8552;48.120;-1.456;2022-07-23T09:58:52;7.32;;;3.03;;
16870;SDS011;8552;48.120;-1.456;2022-07-23T10:01:27;5.65;;;2.75;;
16870;SDS011;8552;48.120;-1.456;2022-07-23T10:03:54;3.45;;;2.65;;
16870;SDS011;8552;48.120;-1.456;2022-07-23T10:06:20;2.65;;;2.38;;
16870;SDS011;8552;48.120;-1.456;2022-07-23T10:08:46;4.68;;;2.75;;
16870;SDS011;8552;48.120;-1.456;2022-07-23T10:11:15;5.72;;;2.70;;
16870;SDS011;8552;48.120;-1.456;2022-07-23T10:13:42;5.55;;;3.42;;
16870;SDS011;8552;48.120;-1.456;2022-07-23T10:16:21;4.50;;;2.33;;
16870;SDS011;8552;48.120;-1.456;2022-07-23T10:18:47;5.38;;;2.47;;
16870;SDS011;8552;48.120;-1.456;2022-07-23T10:21:16;3.47;;;2.08;;
16870;SDS011;8552;48.120;-1.456;2022-07-23T10:23:48;4.72;;;1.98;;
16870;SDS011;8552;48.120;-1.456;2022-07-23T10:26:32;4.47;;;2.40;;
16870;SDS011;8552;48.120;-1.456;2022-07-23T10:29:13;5.50;;;2.35;;
16870;SDS011;8552;48.120;-1.456;2022-07-23T10:31:49;4.35;;;2.20;;
16870;SDS011;8552;48.120;-1.456;2022-07-23T10:34:36;4.97;;;2.65;;
16870;SDS011;8552;48.120;-1.456;2022-07-23T10:39:34;2.72;;;2.25;;
16870;SDS011;8552;48.120;-1.456;2022-07-23T10:42:10;3.67;;;2.13;;
16870;SDS011;8552;48.120;-1.456;2022-07-23T10:44:38;5.13;;;1.90;;
16870;SDS011;8552;48.120;-1.456;2022-07-23T10:47:09;6.43;;;2.50;;
16870;SDS011;8552;48.120;-1.456;2022-07-23T10:49:36;3.03;;;2.00;;
16870;SDS011;8552;48.120;-1.456;2022-07-23T10:54:40;4.22;;;2.00;;
16870;SDS011;8552;48.120;-1.456;2022-07-23T10:57:07;3.75;;;1.90;;
16870;SDS011;8552;48.120;-1.456;2022-07-23T11:00:08;1.92;;;1.60;;
16870;SDS011;8552;48.120;-1.456;2022-07-23T11:02:29;3.10;;;1.70;;
16870;SDS011;8552;48.120;-1.456;2022-07-23T11:04:59;3.20;;;1.63;;
16870;SDS011;8552;48.120;-1.456;2022-07-23T11:07:37;2.35;;;1.75;;
16870;SDS011;8552;48.120;-1.456;2022-07-23T11:10:34;3.03;;;1.70;;
16870;SDS011;8552;48.120;-1.456;2022-07-23T11:19:08;2.63;;;1.48;;
16870;SDS011;8552;48.120;-1.456;2022-07-23T11:24:03;1.95;;;1.50;;
16870;SDS011;8552;48.120;-1.456;2022-07-23T11:31:57;4.22;;;1.58;;
16870;SDS011;8552;48.120;-1.456;2022-07-23T11:34:35;2.10;;;1.60;;
16870;SDS011;8552;48.120;-1.456;2022-07-23T11:37:07;2.85;;;1.50;;
16870;SDS011;8552;48.120;-1.456;2022-07-23T11:39:36;3.58;;;1.42;;
16870;SDS011;8552;48.120;-1.456;2022-07-23T11:42:04;3.85;;;1.60;;
16870;SDS011;8552;48.120;-1.456;2022-07-23T11:47:03;3.85;;;1.30;;
16870;SDS011;8552;48.120;-1.456;2022-07-23T11:49:34;3.03;;;1.63;;
16870;SDS011;8552;48.120;-1.456;2022-07-23T11:52:10;2.88;;;1.70;;
16870;SDS011;8552;48.120;-1.456;2022-07-23T11:54:51;1.50;;;1.40;;
16870;SDS011;8552;48.120;-1.456;2022-07-23T11:57:19;2.10;;;1.42;;
16870;SDS011;8552;48.120;-1.456;2022-07-23T11:59:46;1.83;;;1.17;;
16870;SDS011;8552;48.120;-1.456;2022-07-23T12:02:14;2.17;;;1.23;;
16870;SDS011;8552;48.120;-1.456;2022-07-23T12:04:41;2.65;;;1.20;;
16870;SDS011;8552;48.120;-1.456;2022-07-23T12:07:31;2.25;;;1.38;;
16870;SDS011;8552;48.120;-1.456;2022-07-23T12:10:00;2.30;;;1.40;;
16870;SDS011;8552;48.120;-1.456;2022-07-23T12:12:38;1.88;;;1.20;;
16870;SDS011;8552;48.120;-1.456;2022-07-23T12:15:06;2.67;;;1.23;;
16870;SDS011;8552;48.120;-1.456;2022-07-23T12:17:34;1.33;;;1.02;;
16870;SDS011;8552;48.120;-1.456;2022-07-23T12:20:02;1.40;;;1.27;;
16870;SDS011;8552;48.120;-1.456;2022-07-23T12:22:34;4.70;;;1.40;;
16870;SDS011;8552;48.120;-1.456;2022-07-23T12:25:06;2.20;;;1.25;;
16870;SDS011;8552;48.120;-1.456;2022-07-23T12:27:34;3.33;;;1.48;;
16870;SDS011;8552;48.120;-1.456;2022-07-23T12:30:14;3.40;;;1.45;;
16870;SDS011;8552;48.120;-1.456;2022-07-23T12:32:43;1.10;;;1.00;;
16870;SDS011;8552;48.120;-1.456;2022-07-23T12:35:09;1.58;;;1.13;;
16870;SDS011;8552;48.120;-1.456;2022-07-23T12:37:36;1.50;;;1.20;;
16870;SDS011;8552;48.120;-1.456;2022-07-23T12:40:20;2.95;;;1.30;;
16870;SDS011;8552;48.120;-1.456;2022-07-23T12:42:48;2.78;;;1.30;;
16870;SDS011;8552;48.120;-1.456;2022-07-23T12:45:16;1.17;;;1.10;;
16870;SDS011;8552;48.120;-1.456;2022-07-23T12:51:21;2.35;;;0.90;;
16870;SDS011;8552;48.120;-1.456;2022-07-23T12:55:49;2.90;;;1.27;;
16870;SDS011;8552;48.120;-1.456;2022-07-23T12:58:17;2.20;;;1.20;;
16870;SDS011;8552;48.120;-1.456;2022-07-23T13:03:22;2.10;;;1.00;;
16870;SDS011;8552;48.120;-1.456;2022-07-23T13:05:53;1.83;;;1.20;;
16870;SDS011;8552;48.120;-1.456;2022-07-23T13:08:19;2.08;;;1.50;;
16870;SDS011;8552;48.120;-1.456;2022-07-23T13:10:46;13.27;;;2.10;;
16870;SDS011;8552;48.120;-1.456;2022-07-23T13:13:16;3.28;;;1.20;;
16870;SDS011;8552;48.120;-1.456;2022-07-23T13:15:46;1.60;;;1.10;;
16870;SDS011;8552;48.120;-1.456;2022-07-23T13:18:12;2.83;;;1.10;;
16870;SDS011;8552;48.120;-1.456;2022-07-23T13:20:37;2.38;;;1.17;;
16870;SDS011;8552;48.120;-1.456;2022-07-23T13:23:04;2.22;;;1.20;;
16870;SDS011;8552;48.120;-1.456;2022-07-23T13:25:31;1.48;;;1.10;;
16870;SDS011;8552;48.120;-1.456;2022-07-23T13:27:57;1.40;;;0.90;;
16870;SDS011;8552;48.120;-1.456;2022-07-23T13:30:22;2.08;;;1.10;;
16870;SDS011;8552;48.120;-1.456;2022-07-23T13:32:48;2.25;;;1.02;;
16870;SDS011;8552;48.120;-1.456;2022-07-23T13:35:14;1.27;;;0.98;;
16870;SDS011;8552;48.120;-1.456;2022-07-23T13:37:40;1.10;;;0.88;;
16870;SDS011;8552;48.120;-1.456;2022-07-23T13:40:06;2.00;;;1.27;;
16870;SDS011;8552;48.120;-1.456;2022-07-23T13:42:33;1.30;;;1.20;;
16870;SDS011;8552;48.120;-1.456;2022-07-23T13:44:59;3.25;;;0.95;;
16870;SDS011;8552;48.120;-1.456;2022-07-23T13:47:24;1.10;;;1.00;;
16870;SDS011;8552;48.120;-1.456;2022-07-23T13:49:50;3.05;;;1.08;;
16870;SDS011;8552;48.120;-1.456;2022-07-23T13:52:16;1.30;;;1.05;;
16870;SDS011;8552;48.120;-1.456;2022-07-23T13:54:42;0.95;;;0.82;;
16870;SDS011;8552;48.120;-1.456;2022-07-23T13:57:07;1.50;;;0.85;;
16870;SDS011;8552;48.120;-1.456;2022-07-23T13:59:34;4.38;;;1.20;;
16870;SDS011;8552;48.120;-1.456;2022-07-23T14:02:04;0.88;;;0.82;;
16870;SDS011;8552;48.120;-1.456;2022-07-23T14:04:30;3.90;;;1.00;;
16870;SDS011;8552;48.120;-1.456;2022-07-23T14:06:56;0.75;;;0.73;;
16870;SDS011;8552;48.120;-1.456;2022-07-23T14:09:22;0.75;;;0.75;;
16870;SDS011;8552;48.120;-1.456;2022-07-23T14:11:48;1.50;;;0.90;;
16870;SDS011;8552;48.120;-1.456;2022-07-23T14:14:16;1.27;;;0.90;;
16870;SDS011;8552;48.120;-1.456;2022-07-23T14:16:42;1.15;;;0.70;;
16870;SDS011;8552;48.120;-1.456;2022-07-23T14:19:09;1.15;;;0.93;;
16870;SDS011;8552;48.120;-1.456;2022-07-23T14:21:35;1.13;;;0.88;;
16870;SDS011;8552;48.120;-1.456;2022-07-23T14:24:01;1.92;;;0.88;;
16870;SDS011;8552;48.120;-1.456;2022-07-23T14:26:27;2.25;;;1.10;;
16870;SDS011;8552;48.120;-1.456;2022-07-23T14:28:53;0.77;;;0.60;;
16870;SDS011;8552;48.120;-1.456;2022-07-23T14:31:19;1.20;;;0.70;;
16870;SDS011;8552;48.120;-1.456;2022-07-23T14:33:44;1.90;;;0.80;;
16870;SDS011;8552;48.120;-1.456;2022-07-23T14:36:10;0.70;;;0.70;;
16870;SDS011;8552;48.120;-1.456;2022-07-23T14:38:36;1.73;;;0.68;;
16870;SDS011;8552;48.120;-1.456;2022-07-23T14:41:02;2.00;;;0.70;;
16870;SDS011;8552;48.120;-1.456;2022-07-23T14:43:31;0.80;;;0.80;;
16870;SDS011;8552;48.120;-1.456;2022-07-23T14:45:57;0.80;;;0.70;;
16870;SDS011;8552;48.120;-1.456;2022-07-23T14:48:23;1.02;;;0.93;;
16870;SDS011;8552;48.120;-1.456;2022-07-23T14:50:49;0.77;;;0.77;;
16870;SDS011;8552;48.120;-1.456;2022-07-23T14:53:15;1.88;;;0.80;;
16870;SDS011;8552;48.120;-1.456;2022-07-23T14:55:41;2.00;;;0.90;;
16870;SDS011;8552;48.120;-1.456;2022-07-23T14:58:06;0.90;;;0.77;;
16870;SDS011;8552;48.120;-1.456;2022-07-23T15:00:32;1.55;;;0.88;;
16870;SDS011;8552;48.120;-1.456;2022-07-23T15:02:58;1.40;;;1.00;;
16870;SDS011;8552;48.120;-1.456;2022-07-23T15:05:23;1.00;;;0.70;;
16870;SDS011;8552;48.120;-1.456;2022-07-23T15:07:49;0.68;;;0.68;;
16870;SDS011;8552;48.120;-1.456;2022-07-23T15:10:15;1.13;;;0.80;;
16870;SDS011;8552;48.120;-1.456;2022-07-23T15:12:41;1.13;;;0.90;;
16870;SDS011;8552;48.120;-1.456;2022-07-23T15:15:07;0.70;;;0.70;;
16870;SDS011;8552;48.120;-1.456;2022-07-23T15:17:33;0.88;;;0.85;;
16870;SDS011;8552;48.120;-1.456;2022-07-23T15:19:59;1.08;;;1.00;;
16870;SDS011;8552;48.120;-1.456;2022-07-23T15:22:24;0.80;;;0.80;;
16870;SDS011;8552;48.120;-1.456;2022-07-23T15:24:50;1.52;;;0.90;;